| time (UTC) | temp C | wind direction | speed KPH | gust KPH | rain 1hr cm | rain 24hr cm | rain mn cm | humidity % | barometer mb |
| 20260507151522 | 14 | 317 | 3.2 | 9.7 | 0.00 | 1.12 | 0.84 | 82 | 1005.2 |
| 20260507150019 | 11 | 5 | 4.8 | 11.3 | 0.00 | 1.12 | 0.84 | 89 | 1005.0 |
| 20260507144518 | 10 | 250 | 1.6 | 4.8 | 0.00 | 1.12 | 0.84 | 89 | 1005.1 |
| 20260507143019 | 10 | 265 | 3.2 | 12.9 | 0.00 | 1.12 | 0.84 | 93 | 1005.2 |
| 20260507141516 | 9 | 290 | 3.2 | 12.9 | 0.00 | 1.12 | 0.84 | 95 | 1005.2 |
| 20260507140016 | 9 | 299 | 4.8 | 14.5 | 0.00 | 1.12 | 0.84 | 96 | 1005.1 |
| 20260507134514 | 9 | 294 | 1.6 | 8.0 | 0.00 | 1.12 | 0.84 | 98 | 1005.3 |
| 20260507133014 | 9 | 325 | 3.2 | 8.0 | 0.03 | 1.12 | 0.84 | 98 | 1005.3 |
| 20260507131519 | 8 | 284 | 3.2 | 6.4 | 0.05 | 1.12 | 0.84 | 98 | 1004.9 |
| 20260507130012 | 8 | 279 | 1.6 | 6.4 | 0.05 | 1.12 | 0.84 | 97 | 1005.3 |
| 20260507124512 | 7 | 280 | 3.2 | 8.0 | 0.08 | 1.12 | 0.84 | 97 | 1005.5 |
| 20260507123011 | 7 | 291 | 1.6 | 12.9 | 0.08 | 1.09 | 0.81 | 97 | 1005.4 |
| 20260507121509 | 8 | 360 | 4.8 | 12.9 | 0.05 | 1.07 | 0.79 | 98 | 1005.1 |
| 20260507120022 | 8 | 275 | 1.6 | 8.0 | 0.08 | 1.07 | 0.79 | 97 | 1005.0 |
| 20260507114505 | 8 | 288 | 4.8 | 14.5 | 0.08 | 1.04 | 0.76 | 97 | 1005.1 |
| 20260507113005 | 8 | 310 | 3.2 | 17.7 | 0.05 | 1.02 | 0.71 | 97 | 1005.7 |
| 20260507111501 | 8 | 304 | 3.2 | 16.1 | 0.08 | 1.02 | 0.71 | 98 | 1004.6 |
| 20260507110111 | 9 | 298 | 3.2 | 14.5 | 0.08 | 0.99 | 0.71 | 98 | 1004.5 |
| 20260507104557 | 9 | 302 | 3.2 | 11.3 | 0.08 | 0.97 | 0.69 | 97 | 1004.6 |
| 20260507103055 | 9 | 287 | 3.2 | 14.5 | 0.13 | 0.97 | 0.69 | 98 | 1004.3 |
| 20260507101603 | 9 | 306 | 3.2 | 16.1 | 0.15 | 0.94 | 0.66 | 97 | 1004.0 |
| 20260507100051 | 10 | 340 | 3.2 | 9.7 | 0.15 | 0.91 | 0.64 | 97 | 1004.2 |
| 20260507094548 | 11 | 338 | 3.2 | 11.3 | 0.20 | 0.89 | 0.61 | 98 | 1003.6 |
| 20260507093053 | 11 | 273 | 4.8 | 16.1 | 0.43 | 0.84 | 0.56 | 98 | 1003.9 |
| 20260507091550 | 11 | 221 | 0.0 | 4.8 | 0.51 | 0.79 | 0.51 | 98 | 1003.3 |
| 20260507090045 | 10 | 222 | 1.6 | 4.8 | 0.48 | 0.76 | 0.48 | 98 | 1004.0 |
| 20260507084543 | 11 | 223 | 1.6 | 9.7 | 0.38 | 0.66 | 0.38 | 98 | 1004.1 |
| 20260507083042 | 11 | 223 | 1.6 | 9.7 | 0.13 | 0.41 | 0.13 | 98 | 1004.0 |
| 20260507081547 | 11 | 188 | 0.0 | 4.8 | 0.00 | 0.28 | 0.00 | 98 | 1002.9 |
| 20260507080039 | 11 | 188 | 0.0 | 4.8 | 0.00 | 0.28 | 0.00 | 98 | 1002.8 |
| 20260507074554 | 11 | 205 | 0.0 | 4.8 | 0.00 | 0.28 | 0.00 | 98 | 1002.9 |
| 20260507073037 | 11 | 205 | 1.6 | 4.8 | 0.00 | 0.28 | 0.00 | 98 | 1003.3 |
| 20260507071536 | 11 | 205 | 1.6 | 4.8 | 0.00 | 0.28 | 0.00 | 98 | 1003.2 |
| 20260507070035 | 11 | 207 | 1.6 | 4.8 | 0.00 | 0.28 | 0.00 | 98 | 1003.5 |
| 20260507064534 | 11 | 207 | 1.6 | 6.4 | 0.00 | 0.28 | 0.00 | 98 | 1003.3 |
| 20260507063034 | 11 | 210 | 3.2 | 8.0 | 0.00 | 0.28 | 0.00 | 98 | 1003.0 |
| 20260507061533 | 11 | 230 | 4.8 | 12.9 | 0.00 | 0.28 | 0.00 | 97 | 1003.6 |
| 20260507060030 | 11 | 204 | 3.2 | 12.9 | 0.00 | 0.28 | 0.00 | 97 | 1003.4 |
| 20260507054527 | 11 | 156 | 4.8 | 12.9 | 0.00 | 0.28 | 0.00 | 97 | 1003.8 |
| 20260507053026 | 11 | 188 | 6.4 | 16.1 | 0.00 | 0.28 | 0.00 | 97 | 1004.0 |
| 20260507051525 | 11 | 227 | 8.0 | 24.1 | 0.00 | 0.28 | 0.00 | 97 | 1004.1 |
| 20260507050026 | 11 | 199 | 4.8 | 17.7 | 0.00 | 0.28 | 0.00 | 97 | 1004.3 |
| 20260507044519 | 11 | 199 | 6.4 | 17.7 | 0.00 | 0.28 | 0.00 | 97 | 1004.2 |
| 20260507043018 | 11 | 219 | 6.4 | 20.9 | 0.00 | 0.28 | 0.00 | 97 | 1004.3 |
| 20260507041515 | 11 | 211 | 8.0 | 22.5 | 0.00 | 0.28 | 0.00 | 97 | 1004.5 |
| 20260507040013 | 12 | 213 | 6.4 | 22.5 | 0.00 | 0.28 | 0.28 | 97 | 1004.6 |
| 20260507034508 | 12 | 225 | 9.7 | 22.5 | 0.00 | 0.28 | 0.28 | 97 | 1004.7 |
| 20260507033016 | 12 | 205 | 6.4 | 16.1 | 0.00 | 0.28 | 0.28 | 97 | 1004.6 |
| 20260507031507 | 12 | 205 | 6.4 | 22.5 | 0.00 | 0.28 | 0.28 | 97 | 1004.5 |
| 20260507030007 | 12 | 188 | 9.7 | 17.7 | 0.00 | 0.28 | 0.28 | 97 | 1004.2 |
| 20260507024503 | 12 | 185 | 8.0 | 22.5 | 0.00 | 0.28 | 0.28 | 97 | 1004.5 |
| 20260507023107 | 12 | 195 | 9.7 | 24.1 | 0.00 | 0.28 | 0.28 | 97 | 1004.9 |
| 20260507021602 | 13 | 186 | 8.0 | 19.3 | 0.00 | 0.28 | 0.28 | 96 | 1004.9 |
| 20260507020100 | 13 | 205 | 9.7 | 16.1 | 0.00 | 0.28 | 0.28 | 96 | 1005.1 |
| 20260507014603 | 13 | 194 | 11.3 | 33.8 | 0.00 | 0.28 | 0.28 | 96 | 1005.1 |
| 20260507013054 | 13 | 360 | 9.7 | 27.4 | 0.03 | 0.28 | 0.28 | 97 | 1005.3 |
| 20260507011553 | 13 | 174 | 8.0 | 24.1 | 0.03 | 0.28 | 0.28 | 97 | 1005.2 |
| 20260507010057 | 14 | 212 | 6.4 | 24.1 | 0.05 | 0.28 | 0.28 | 97 | 1005.2 |
| 20260507004552 | 13 | 229 | 8.0 | 14.5 | 0.08 | 0.28 | 0.28 | 97 | 1005.2 |
| 20260507003052 | 13 | 169 | 9.7 | 17.7 | 0.13 | 0.25 | 0.25 | 97 | 1005.1 |
| 20260507001554 | 13 | 160 | 6.4 | 14.5 | 0.18 | 0.25 | 0.25 | 97 | 1005.1 |
| 20260507000049 | 13 | 360 | 6.4 | 16.1 | 0.20 | 0.23 | 0.23 | 96 | 1005.0 |
| 20260506234549 | 13 | 360 | 6.4 | 16.1 | 0.18 | 0.18 | 0.18 | 95 | 1004.9 |
| 20260506233055 | 13 | 188 | 6.4 | 30.6 | 0.13 | 0.13 | 0.13 | 95 | 1005.0 |
| 20260506231543 | 13 | 194 | 8.0 | 20.9 | 0.08 | 0.08 | 0.08 | 94 | 1005.4 |
| 20260506230040 | 14 | 175 | 6.4 | 17.7 | 0.03 | 0.03 | 0.03 | 93 | 1005.7 |
| 20260506224539 | 14 | 213 | 8.0 | 29.0 | 0.00 | 0.00 | 0.00 | 91 | 1005.7 |
| 20260506223038 | 15 | 360 | 9.7 | 22.5 | 0.00 | 0.00 | 0.00 | 88 | 1005.7 |
| 20260506221538 | 16 | 187 | 8.0 | 25.7 | 0.00 | 0.00 | 0.00 | 84 | 1005.7 |
| 20260506220038 | 16 | 175 | 8.0 | 19.3 | 0.00 | 0.00 | 0.00 | 82 | 1005.4 |
| 20260506214536 | 16 | 360 | 6.4 | 24.1 | 0.00 | 0.00 | 0.00 | 82 | 1005.7 |
| 20260506213035 | 16 | 180 | 6.4 | 32.2 | 0.00 | 0.00 | 0.00 | 82 | 1006.0 |
| 20260506211535 | 16 | 188 | 12.9 | 29.0 | 0.00 | 0.00 | 0.00 | 81 | 1006.1 |
| 20260506210033 | 16 | 184 | 8.0 | 17.7 | 0.00 | 0.00 | 0.00 | 80 | 1006.0 |
| 20260506204531 | 16 | 360 | 8.0 | 20.9 | 0.00 | 0.00 | 0.00 | 79 | 1006.1 |
| 20260506203030 | 16 | 171 | 9.7 | 25.7 | 0.00 | 0.00 | 0.00 | 79 | 1006.4 |
| 20260506201531 | 17 | 175 | 6.4 | 24.1 | 0.00 | 0.00 | 0.00 | 78 | 1006.4 |
| 20260506200029 | 16 | 159 | 8.0 | 33.8 | 0.00 | 0.00 | 0.00 | 78 | 1006.6 |
| 20260506194527 | 16 | 190 | 9.7 | 19.3 | 0.00 | 0.00 | 0.00 | 78 | 1006.9 |
| 20260506193028 | 16 | 174 | 8.0 | 29.0 | 0.00 | 0.00 | 0.00 | 78 | 1007.0 |
| 20260506191526 | 17 | 172 | 6.4 | 33.8 | 0.00 | 0.00 | 0.00 | 77 | 1007.1 |
| 20260506190025 | 17 | 203 | 9.7 | 27.4 | 0.00 | 0.00 | 0.00 | 76 | 1007.1 |
| 20260506184523 | 17 | 193 | 11.3 | 30.6 | 0.00 | 0.00 | 0.00 | 74 | 1007.3 |
| 20260506183022 | 17 | 360 | 11.3 | 35.4 | 0.00 | 0.00 | 0.00 | 75 | 1007.5 |
| 20260506181521 | 18 | 203 | 9.7 | 45.1 | 0.00 | 0.00 | 0.00 | 74 | 1007.8 |
| 20260506180019 | 19 | 163 | 11.3 | 22.5 | 0.00 | 0.00 | 0.00 | 70 | 1008.3 |
| 20260506174517 | 20 | 188 | 9.7 | 19.3 | 0.00 | 0.00 | 0.00 | 70 | 1008.2 |
| 20260506173016 | 19 | 175 | 12.9 | 35.4 | 0.00 | 0.00 | 0.00 | 71 | 1008.1 |
| 20260506171513 | 18 | 200 | 9.7 | 29.0 | 0.00 | 0.00 | 0.00 | 73 | 1008.4 |
| 20260506170011 | 18 | 360 | 9.7 | 29.0 | 0.00 | 0.00 | 0.00 | 73 | 1008.5 |
| 20260506164510 | 18 | 211 | 8.0 | 37.0 | 0.00 | 0.00 | 0.00 | 74 | 1008.8 |
| 20260506163021 | 19 | 190 | 11.3 | 29.0 | 0.00 | 0.00 | 0.00 | 72 | 1009.0 |
| 20260506161508 | 19 | 140 | 11.3 | 41.8 | 0.00 | 0.00 | 0.00 | 72 | 1009.0 |
| 20260506160015 | 18 | 186 | 12.9 | 33.8 | 0.00 | 0.00 | 0.00 | 73 | 1009.2 |
| 20260506154504 | 19 | 155 | 14.5 | 37.0 | 0.00 | 0.00 | 0.00 | 71 | 1009.7 |
| 20260506153003 | 19 | 170 | 14.5 | 32.2 | 0.00 | 0.00 | 0.00 | 72 | 1009.6 |